Friday, November 17, 2017, 7:35 PM GMT
Back to Local

CWNH, Riviere Du Loup, Que.

Location: , , Canada Lat: 47.8
Local Time: 7:35 PM GMT (19:35 GMT) Lon: -69.55
Time Zone: GMT Elev: 485 ft

Show me the last for .
Show Coded

Time T Td Feel RH Dir Speed Gust Alt SLP Vis Weather Sky Remarks
2017-11-17 19:00 26 19 14 71 340° 10 17 - 29.77 0 Peak wind: 23 mph (20 kts) from 0° at 07 min
2017-11-17 18:00 26 19 12 72 330° 14 22 - 29.75 0 Peak wind: 21 mph (19 kts) from 340° at 52 min
2017-11-17 17:00 27 20 13 77 330° 12 20 - 29.75 0 Peak wind: 21 mph (19 kts) from 320° at 30 min
2017-11-17 16:00 27 21 13 78 320° 13 22 - 29.76 0 Peak wind: 29 mph (26 kts) from 330° at 26 min
2017-11-17 15:00 28 22 14 79 330° 13 22 - 29.75 0 Peak wind: 25 mph (22 kts) from 320° at 19 min
2017-11-17 14:00 29 24 16 82 330° 12 20 - 29.74 0 Peak wind: 25 mph (22 kts) from 320° at 03 min
2017-11-17 13:00 31 27 19 84 330° 13 22 - 29.72 0 Peak wind: 23 mph (20 kts) from 300° at 38 min
2017-11-17 12:00 34 30 22 85 330° 13 20 - 29.70 0 Peak wind: 19 mph (17 kts) from 320° at 55 min
2017-11-17 11:00 34 32 26 93 360° 9 - - 29.68 0 None
2017-11-17 10:00 33 33 26 97 360° 9 - - 29.66 0 None
2017-11-17 09:00 33 31 26 91 360° 9 - - 29.66 0 None
2017-11-17 08:00 33 32 25 95 360° 9 - - 29.65 0 None
2017-11-17 07:00 34 31 28 91 10° 6 - - 29.65 0 None
2017-11-17 06:00 34 31 - 89 340° 2 - - 29.65 0 None
2017-11-17 05:00 34 32 - 92 100° 1 - - 29.67 0 None
2017-11-17 04:00 34 31 - 90 80° 2 - - 29.68 0 None
2017-11-17 03:00 33 32 - 96 30° 1 - - 29.69 0 None
2017-11-17 02:00 33 32 - 95 250° 1 - - 29.70 0 None
2017-11-17 01:00 35 32 32 89 150° 3 - - 29.73 0 None
2017-11-17 00:00 35 33 33 91 210° 3 - - 29.74 0 None
2017-11-16 23:00 35 33 31 93 160° 5 - - 29.74 0 None
2017-11-16 22:00 34 31 31 90 140° 3 - - 29.74 0 None
2017-11-16 21:00 34 33 31 96 150° 3 - - 29.75 0 1-hr Precip Total: 0.01"
2017-11-16 20:00 33 31 29 92 140° 5 - - 29.77 0 None

Support USWX by starting your Amazon purchase here.